sensor_id;sensor_type;location;lat;lon;timestamp;P1;durP1;ratioP1;P2;durP2;ratioP2
5539;SDS011;2792;52.452;9.752;2023-07-13T00:01:26;5.07;;;2.60;;
5539;SDS011;2792;52.452;9.752;2023-07-13T00:03:52;7.70;;;2.90;;
5539;SDS011;2792;52.452;9.752;2023-07-13T00:06:20;3.03;;;2.10;;
5539;SDS011;2792;52.452;9.752;2023-07-13T00:08:47;5.37;;;2.50;;
5539;SDS011;2792;52.452;9.752;2023-07-13T00:11:14;3.60;;;2.60;;
5539;SDS011;2792;52.452;9.752;2023-07-13T00:13:41;2.57;;;2.37;;
5539;SDS011;2792;52.452;9.752;2023-07-13T00:16:09;4.23;;;2.83;;
5539;SDS011;2792;52.452;9.752;2023-07-13T00:18:36;4.20;;;2.97;;
5539;SDS011;2792;52.452;9.752;2023-07-13T00:21:03;5.20;;;2.70;;
5539;SDS011;2792;52.452;9.752;2023-07-13T00:23:32;3.93;;;2.90;;
5539;SDS011;2792;52.452;9.752;2023-07-13T00:25:59;4.20;;;3.10;;
5539;SDS011;2792;52.452;9.752;2023-07-13T00:28:27;4.27;;;2.37;;
5539;SDS011;2792;52.452;9.752;2023-07-13T00:30:53;5.47;;;3.10;;
5539;SDS011;2792;52.452;9.752;2023-07-13T00:33:20;5.37;;;3.00;;
5539;SDS011;2792;52.452;9.752;2023-07-13T00:35:47;5.07;;;2.93;;
5539;SDS011;2792;52.452;9.752;2023-07-13T00:38:14;4.63;;;3.00;;
5539;SDS011;2792;52.452;9.752;2023-07-13T00:40:42;6.63;;;2.97;;
5539;SDS011;2792;52.452;9.752;2023-07-13T00:43:09;4.93;;;3.00;;
5539;SDS011;2792;52.452;9.752;2023-07-13T00:48:38;3.40;;;2.73;;
5539;SDS011;2792;52.452;9.752;2023-07-13T00:51:05;4.60;;;3.43;;
5539;SDS011;2792;52.452;9.752;2023-07-13T00:53:31;5.83;;;3.50;;
5539;SDS011;2792;52.452;9.752;2023-07-13T00:56:00;3.37;;;2.80;;
5539;SDS011;2792;52.452;9.752;2023-07-13T00:58:27;5.30;;;3.60;;
5539;SDS011;2792;52.452;9.752;2023-07-13T01:00:54;6.43;;;3.00;;
5539;SDS011;2792;52.452;9.752;2023-07-13T01:03:21;4.43;;;3.00;;
5539;SDS011;2792;52.452;9.752;2023-07-13T01:05:49;3.93;;;3.03;;
5539;SDS011;2792;52.452;9.752;2023-07-13T01:08:16;2.87;;;2.57;;
5539;SDS011;2792;52.452;9.752;2023-07-13T01:10:50;5.37;;;2.80;;
5539;SDS011;2792;52.452;9.752;2023-07-13T01:13:18;8.10;;;3.20;;
5539;SDS011;2792;52.452;9.752;2023-07-13T01:15:46;4.47;;;2.77;;
5539;SDS011;2792;52.452;9.752;2023-07-13T01:18:14;5.30;;;3.40;;
5539;SDS011;2792;52.452;9.752;2023-07-13T01:20:47;5.77;;;3.60;;
5539;SDS011;2792;52.452;9.752;2023-07-13T01:23:16;5.80;;;3.10;;
5539;SDS011;2792;52.452;9.752;2023-07-13T01:25:44;4.93;;;3.20;;
5539;SDS011;2792;52.452;9.752;2023-07-13T01:28:11;3.80;;;2.57;;
5539;SDS011;2792;52.452;9.752;2023-07-13T01:30:37;4.30;;;3.17;;
5539;SDS011;2792;52.452;9.752;2023-07-13T01:33:05;6.23;;;3.33;;
5539;SDS011;2792;52.452;9.752;2023-07-13T01:35:32;3.33;;;3.00;;
5539;SDS011;2792;52.452;9.752;2023-07-13T01:38:00;7.27;;;3.03;;
5539;SDS011;2792;52.452;9.752;2023-07-13T01:40:28;4.83;;;3.40;;
5539;SDS011;2792;52.452;9.752;2023-07-13T01:42:55;6.63;;;2.90;;
5539;SDS011;2792;52.452;9.752;2023-07-13T01:45:21;3.73;;;3.00;;
5539;SDS011;2792;52.452;9.752;2023-07-13T01:47:48;6.60;;;3.03;;
5539;SDS011;2792;52.452;9.752;2023-07-13T01:50:15;5.93;;;3.20;;
5539;SDS011;2792;52.452;9.752;2023-07-13T01:52:41;4.30;;;2.87;;
5539;SDS011;2792;52.452;9.752;2023-07-13T01:55:09;4.30;;;2.70;;
5539;SDS011;2792;52.452;9.752;2023-07-13T01:57:36;4.90;;;3.43;;
5539;SDS011;2792;52.452;9.752;2023-07-13T02:00:03;4.17;;;3.33;;
5539;SDS011;2792;52.452;9.752;2023-07-13T02:02:31;6.27;;;3.13;;
5539;SDS011;2792;52.452;9.752;2023-07-13T02:04:58;9.27;;;3.50;;
5539;SDS011;2792;52.452;9.752;2023-07-13T02:07:24;4.93;;;3.30;;
5539;SDS011;2792;52.452;9.752;2023-07-13T02:09:51;4.50;;;3.40;;
5539;SDS011;2792;52.452;9.752;2023-07-13T02:12:18;4.23;;;3.27;;
5539;SDS011;2792;52.452;9.752;2023-07-13T02:14:45;3.87;;;3.10;;
5539;SDS011;2792;52.452;9.752;2023-07-13T02:17:12;3.33;;;2.93;;
5539;SDS011;2792;52.452;9.752;2023-07-13T02:19:39;5.27;;;3.37;;
5539;SDS011;2792;52.452;9.752;2023-07-13T02:22:05;3.70;;;3.40;;
5539;SDS011;2792;52.452;9.752;2023-07-13T02:24:32;5.13;;;3.10;;
5539;SDS011;2792;52.452;9.752;2023-07-13T02:26:59;6.70;;;2.97;;
5539;SDS011;2792;52.452;9.752;2023-07-13T02:29:27;8.10;;;3.13;;
5539;SDS011;2792;52.452;9.752;2023-07-13T02:31:53;6.60;;;2.93;;
5539;SDS011;2792;52.452;9.752;2023-07-13T02:34:20;3.73;;;2.57;;
5539;SDS011;2792;52.452;9.752;2023-07-13T02:36:46;10.10;;;3.30;;
5539;SDS011;2792;52.452;9.752;2023-07-13T02:39:13;4.30;;;2.87;;
5539;SDS011;2792;52.452;9.752;2023-07-13T02:41:40;9.00;;;3.30;;
5539;SDS011;2792;52.452;9.752;2023-07-13T02:44:06;4.43;;;3.00;;
5539;SDS011;2792;52.452;9.752;2023-07-13T02:46:35;5.73;;;2.53;;
5539;SDS011;2792;52.452;9.752;2023-07-13T02:49:02;4.77;;;3.33;;
5539;SDS011;2792;52.452;9.752;2023-07-13T02:51:30;7.23;;;3.67;;
5539;SDS011;2792;52.452;9.752;2023-07-13T02:53:58;5.57;;;3.20;;
5539;SDS011;2792;52.452;9.752;2023-07-13T02:56:25;5.90;;;2.80;;
5539;SDS011;2792;52.452;9.752;2023-07-13T02:58:53;7.17;;;3.47;;
5539;SDS011;2792;52.452;9.752;2023-07-13T03:01:20;6.00;;;3.00;;
5539;SDS011;2792;52.452;9.752;2023-07-13T03:03:48;2.93;;;2.60;;
5539;SDS011;2792;52.452;9.752;2023-07-13T03:06:16;9.37;;;3.00;;
5539;SDS011;2792;52.452;9.752;2023-07-13T03:08:43;4.13;;;3.10;;
5539;SDS011;2792;52.452;9.752;2023-07-13T03:11:11;8.90;;;3.53;;
5539;SDS011;2792;52.452;9.752;2023-07-13T03:13:39;5.67;;;3.10;;
5539;SDS011;2792;52.452;9.752;2023-07-13T03:16:06;4.57;;;2.93;;
5539;SDS011;2792;52.452;9.752;2023-07-13T03:18:33;2.90;;;2.60;;
5539;SDS011;2792;52.452;9.752;2023-07-13T03:21:01;6.30;;;3.03;;
5539;SDS011;2792;52.452;9.752;2023-07-13T03:23:27;9.47;;;3.83;;
5539;SDS011;2792;52.452;9.752;2023-07-13T03:26:00;8.00;;;2.80;;
5539;SDS011;2792;52.452;9.752;2023-07-13T03:28:28;5.80;;;3.00;;
5539;SDS011;2792;52.452;9.752;2023-07-13T03:30:58;5.60;;;2.57;;
5539;SDS011;2792;52.452;9.752;2023-07-13T03:33:26;3.67;;;3.13;;
5539;SDS011;2792;52.452;9.752;2023-07-13T03:35:52;3.70;;;2.33;;
5539;SDS011;2792;52.452;9.752;2023-07-13T03:38:20;5.87;;;2.73;;
5539;SDS011;2792;52.452;9.752;2023-07-13T03:40:47;4.63;;;2.47;;
5539;SDS011;2792;52.452;9.752;2023-07-13T03:43:13;8.30;;;3.13;;
5539;SDS011;2792;52.452;9.752;2023-07-13T03:45:40;4.70;;;3.07;;
5539;SDS011;2792;52.452;9.752;2023-07-13T03:48:07;5.37;;;2.73;;
5539;SDS011;2792;52.452;9.752;2023-07-13T03:50:34;8.13;;;2.93;;
5539;SDS011;2792;52.452;9.752;2023-07-13T03:53:00;3.90;;;2.50;;
5539;SDS011;2792;52.452;9.752;2023-07-13T03:55:28;4.70;;;2.50;;
5539;SDS011;2792;52.452;9.752;2023-07-13T03:57:57;4.03;;;2.20;;
5539;SDS011;2792;52.452;9.752;2023-07-13T04:00:25;2.70;;;2.50;;
5539;SDS011;2792;52.452;9.752;2023-07-13T04:02:52;5.50;;;2.47;;
5539;SDS011;2792;52.452;9.752;2023-07-13T04:05:19;11.03;;;2.43;;
5539;SDS011;2792;52.452;9.752;2023-07-13T04:07:45;4.40;;;2.17;;
5539;SDS011;2792;52.452;9.752;2023-07-13T04:10:12;5.20;;;2.40;;
5539;SDS011;2792;52.452;9.752;2023-07-13T04:12:39;6.17;;;2.67;;
5539;SDS011;2792;52.452;9.752;2023-07-13T04:15:07;3.40;;;2.00;;
5539;SDS011;2792;52.452;9.752;2023-07-13T04:17:34;3.70;;;2.33;;
5539;SDS011;2792;52.452;9.752;2023-07-13T04:20:01;5.47;;;2.20;;
5539;SDS011;2792;52.452;9.752;2023-07-13T04:22:27;2.70;;;2.07;;
5539;SDS011;2792;52.452;9.752;2023-07-13T04:24:54;8.17;;;2.73;;
5539;SDS011;2792;52.452;9.752;2023-07-13T04:27:20;5.50;;;2.57;;
5539;SDS011;2792;52.452;9.752;2023-07-13T04:29:48;6.43;;;2.10;;
5539;SDS011;2792;52.452;9.752;2023-07-13T04:32:15;5.40;;;2.20;;
5539;SDS011;2792;52.452;9.752;2023-07-13T04:34:41;3.60;;;2.20;;
5539;SDS011;2792;52.452;9.752;2023-07-13T04:37:08;4.60;;;2.50;;
5539;SDS011;2792;52.452;9.752;2023-07-13T04:39:34;3.60;;;2.30;;
5539;SDS011;2792;52.452;9.752;2023-07-13T04:42:01;4.13;;;2.20;;
5539;SDS011;2792;52.452;9.752;2023-07-13T04:44:28;6.70;;;2.90;;
5539;SDS011;2792;52.452;9.752;2023-07-13T04:46:56;3.83;;;2.27;;
5539;SDS011;2792;52.452;9.752;2023-07-13T04:49:22;3.00;;;2.33;;
5539;SDS011;2792;52.452;9.752;2023-07-13T04:51:49;5.30;;;2.30;;
5539;SDS011;2792;52.452;9.752;2023-07-13T04:54:16;4.77;;;2.80;;
5539;SDS011;2792;52.452;9.752;2023-07-13T04:56:44;5.53;;;2.60;;
5539;SDS011;2792;52.452;9.752;2023-07-13T04:59:11;9.10;;;4.23;;
5539;SDS011;2792;52.452;9.752;2023-07-13T05:01:37;11.33;;;3.60;;
5539;SDS011;2792;52.452;9.752;2023-07-13T05:04:05;6.83;;;2.70;;
5539;SDS011;2792;52.452;9.752;2023-07-13T05:06:32;8.07;;;3.10;;
5539;SDS011;2792;52.452;9.752;2023-07-13T05:08:59;8.77;;;3.87;;
5539;SDS011;2792;52.452;9.752;2023-07-13T05:11:26;7.20;;;3.20;;
5539;SDS011;2792;52.452;9.752;2023-07-13T05:13:52;7.10;;;2.70;;
5539;SDS011;2792;52.452;9.752;2023-07-13T05:16:19;11.07;;;2.77;;
5539;SDS011;2792;52.452;9.752;2023-07-13T05:18:45;4.37;;;1.93;;
5539;SDS011;2792;52.452;9.752;2023-07-13T05:21:13;7.13;;;3.10;;
5539;SDS011;2792;52.452;9.752;2023-07-13T05:23:40;4.33;;;2.40;;
5539;SDS011;2792;52.452;9.752;2023-07-13T05:26:07;3.73;;;2.00;;
5539;SDS011;2792;52.452;9.752;2023-07-13T05:28:34;5.10;;;2.40;;
5539;SDS011;2792;52.452;9.752;2023-07-13T05:31:01;3.40;;;2.50;;
5539;SDS011;2792;52.452;9.752;2023-07-13T05:33:27;3.77;;;2.47;;
5539;SDS011;2792;52.452;9.752;2023-07-13T05:35:54;8.00;;;1.90;;
5539;SDS011;2792;52.452;9.752;2023-07-13T05:38:22;3.57;;;1.67;;
5539;SDS011;2792;52.452;9.752;2023-07-13T05:40:49;7.37;;;2.10;;
5539;SDS011;2792;52.452;9.752;2023-07-13T05:43:16;4.27;;;1.70;;
5539;SDS011;2792;52.452;9.752;2023-07-13T05:45:43;5.47;;;2.07;;
5539;SDS011;2792;52.452;9.752;2023-07-13T05:48:10;5.17;;;2.53;;
5539;SDS011;2792;52.452;9.752;2023-07-13T05:50:36;7.80;;;1.87;;
5539;SDS011;2792;52.452;9.752;2023-07-13T05:53:03;3.90;;;1.80;;
5539;SDS011;2792;52.452;9.752;2023-07-13T05:55:31;5.93;;;1.60;;
5539;SDS011;2792;52.452;9.752;2023-07-13T05:57:58;7.03;;;1.77;;
5539;SDS011;2792;52.452;9.752;2023-07-13T06:00:25;5.40;;;1.73;;
5539;SDS011;2792;52.452;9.752;2023-07-13T06:02:52;3.60;;;1.63;;
5539;SDS011;2792;52.452;9.752;2023-07-13T06:05:19;5.53;;;1.70;;
5539;SDS011;2792;52.452;9.752;2023-07-13T06:07:45;3.50;;;1.90;;
5539;SDS011;2792;52.452;9.752;2023-07-13T06:10:12;8.80;;;2.23;;
5539;SDS011;2792;52.452;9.752;2023-07-13T06:12:39;4.57;;;1.70;;
5539;SDS011;2792;52.452;9.752;2023-07-13T06:15:07;5.77;;;1.63;;
5539;SDS011;2792;52.452;9.752;2023-07-13T06:17:34;5.93;;;2.13;;
5539;SDS011;2792;52.452;9.752;2023-07-13T06:20:00;5.97;;;1.63;;
5539;SDS011;2792;52.452;9.752;2023-07-13T06:22:27;5.87;;;1.90;;
5539;SDS011;2792;52.452;9.752;2023-07-13T06:24:53;5.63;;;1.80;;
5539;SDS011;2792;52.452;9.752;2023-07-13T06:27:20;7.27;;;2.23;;
5539;SDS011;2792;52.452;9.752;2023-07-13T06:29:48;3.83;;;1.90;;
5539;SDS011;2792;52.452;9.752;2023-07-13T06:32:15;4.77;;;2.07;;
5539;SDS011;2792;52.452;9.752;2023-07-13T06:34:41;6.23;;;2.27;;
5539;SDS011;2792;52.452;9.752;2023-07-13T06:37:08;5.20;;;1.90;;
5539;SDS011;2792;52.452;9.752;2023-07-13T06:39:35;6.33;;;2.00;;
5539;SDS011;2792;52.452;9.752;2023-07-13T06:42:02;10.00;;;2.13;;
5539;SDS011;2792;52.452;9.752;2023-07-13T06:44:28;3.60;;;1.90;;
5539;SDS011;2792;52.452;9.752;2023-07-13T06:46:56;4.63;;;1.70;;
5539;SDS011;2792;52.452;9.752;2023-07-13T06:49:23;4.03;;;2.40;;
5539;SDS011;2792;52.452;9.752;2023-07-13T06:51:49;5.43;;;1.93;;
5539;SDS011;2792;52.452;9.752;2023-07-13T06:54:16;5.73;;;2.00;;
5539;SDS011;2792;52.452;9.752;2023-07-13T06:56:43;7.37;;;2.67;;
5539;SDS011;2792;52.452;9.752;2023-07-13T06:59:09;5.93;;;1.90;;
5539;SDS011;2792;52.452;9.752;2023-07-13T07:01:36;7.40;;;2.57;;
5539;SDS011;2792;52.452;9.752;2023-07-13T07:04:04;5.33;;;1.93;;
5539;SDS011;2792;52.452;9.752;2023-07-13T07:06:31;3.80;;;2.30;;
5539;SDS011;2792;52.452;9.752;2023-07-13T07:08:57;6.07;;;1.77;;
5539;SDS011;2792;52.452;9.752;2023-07-13T07:11:24;4.00;;;1.70;;
5539;SDS011;2792;52.452;9.752;2023-07-13T07:13:52;3.23;;;1.67;;
5539;SDS011;2792;52.452;9.752;2023-07-13T07:16:19;4.83;;;1.97;;
5539;SDS011;2792;52.452;9.752;2023-07-13T07:18:46;7.87;;;2.33;;
5539;SDS011;2792;52.452;9.752;2023-07-13T07:21:14;4.20;;;1.80;;
5539;SDS011;2792;52.452;9.752;2023-07-13T07:23:41;7.27;;;2.03;;
5539;SDS011;2792;52.452;9.752;2023-07-13T07:26:08;3.70;;;1.83;;
5539;SDS011;2792;52.452;9.752;2023-07-13T07:28:35;10.13;;;2.00;;
5539;SDS011;2792;52.452;9.752;2023-07-13T07:31:01;4.07;;;1.60;;
5539;SDS011;2792;52.452;9.752;2023-07-13T07:33:28;7.40;;;1.93;;
5539;SDS011;2792;52.452;9.752;2023-07-13T07:35:54;7.73;;;1.80;;
5539;SDS011;2792;52.452;9.752;2023-07-13T07:38:22;3.27;;;1.73;;
5539;SDS011;2792;52.452;9.752;2023-07-13T07:40:49;6.90;;;2.13;;
5539;SDS011;2792;52.452;9.752;2023-07-13T07:43:16;6.07;;;2.03;;
5539;SDS011;2792;52.452;9.752;2023-07-13T07:45:43;6.40;;;1.67;;
5539;SDS011;2792;52.452;9.752;2023-07-13T07:48:10;3.87;;;1.60;;
5539;SDS011;2792;52.452;9.752;2023-07-13T07:50:37;5.00;;;2.10;;
5539;SDS011;2792;52.452;9.752;2023-07-13T07:53:04;9.80;;;2.30;;
5539;SDS011;2792;52.452;9.752;2023-07-13T07:55:34;5.90;;;2.03;;
5539;SDS011;2792;52.452;9.752;2023-07-13T07:58:01;5.00;;;1.60;;
5539;SDS011;2792;52.452;9.752;2023-07-13T08:00:27;4.03;;;2.13;;
5539;SDS011;2792;52.452;9.752;2023-07-13T08:02:56;5.97;;;2.10;;
5539;SDS011;2792;52.452;9.752;2023-07-13T08:05:22;6.10;;;2.10;;
5539;SDS011;2792;52.452;9.752;2023-07-13T08:07:49;5.30;;;2.30;;
5539;SDS011;2792;52.452;9.752;2023-07-13T08:10:16;6.23;;;1.70;;
5539;SDS011;2792;52.452;9.752;2023-07-13T08:12:44;3.93;;;2.17;;
5539;SDS011;2792;52.452;9.752;2023-07-13T08:15:11;6.13;;;1.80;;
5539;SDS011;2792;52.452;9.752;2023-07-13T08:17:41;5.93;;;2.10;;
5539;SDS011;2792;52.452;9.752;2023-07-13T08:20:08;5.83;;;1.90;;
5539;SDS011;2792;52.452;9.752;2023-07-13T08:22:35;8.93;;;1.90;;
5539;SDS011;2792;52.452;9.752;2023-07-13T08:25:02;5.37;;;1.93;;
5539;SDS011;2792;52.452;9.752;2023-07-13T08:27:28;8.77;;;2.20;;
5539;SDS011;2792;52.452;9.752;2023-07-13T08:29:56;7.30;;;2.13;;
5539;SDS011;2792;52.452;9.752;2023-07-13T08:32:23;7.83;;;1.97;;
5539;SDS011;2792;52.452;9.752;2023-07-13T08:34:50;7.70;;;1.97;;
5539;SDS011;2792;52.452;9.752;2023-07-13T08:37:18;4.73;;;2.10;;
5539;SDS011;2792;52.452;9.752;2023-07-13T08:39:45;6.80;;;1.70;;
5539;SDS011;2792;52.452;9.752;2023-07-13T08:42:27;5.10;;;2.30;;
5539;SDS011;2792;52.452;9.752;2023-07-13T08:45:04;5.13;;;1.70;;
5539;SDS011;2792;52.452;9.752;2023-07-13T08:47:36;6.67;;;1.80;;
5539;SDS011;2792;52.452;9.752;2023-07-13T08:50:05;5.53;;;1.70;;
5539;SDS011;2792;52.452;9.752;2023-07-13T08:52:32;3.20;;;1.63;;
5539;SDS011;2792;52.452;9.752;2023-07-13T08:55:02;5.80;;;1.60;;
5539;SDS011;2792;52.452;9.752;2023-07-13T08:57:32;4.03;;;2.27;;
5539;SDS011;2792;52.452;9.752;2023-07-13T09:00:01;5.60;;;2.20;;
5539;SDS011;2792;52.452;9.752;2023-07-13T09:02:34;6.20;;;2.10;;
5539;SDS011;2792;52.452;9.752;2023-07-13T09:05:09;5.10;;;2.53;;
5539;SDS011;2792;52.452;9.752;2023-07-13T09:07:40;7.43;;;2.60;;
5539;SDS011;2792;52.452;9.752;2023-07-13T09:10:14;4.03;;;2.47;;
5539;SDS011;2792;52.452;9.752;2023-07-13T09:12:53;4.47;;;2.43;;
5539;SDS011;2792;52.452;9.752;2023-07-13T09:15:27;4.63;;;2.20;;
5539;SDS011;2792;52.452;9.752;2023-07-13T09:17:57;4.83;;;2.20;;
5539;SDS011;2792;52.452;9.752;2023-07-13T09:20:26;4.63;;;2.00;;
5539;SDS011;2792;52.452;9.752;2023-07-13T09:22:55;3.93;;;1.97;;
5539;SDS011;2792;52.452;9.752;2023-07-13T09:25:24;6.90;;;2.03;;
5539;SDS011;2792;52.452;9.752;2023-07-13T09:27:55;5.67;;;1.90;;
5539;SDS011;2792;52.452;9.752;2023-07-13T09:30:27;5.30;;;2.20;;
5539;SDS011;2792;52.452;9.752;2023-07-13T09:32:59;5.80;;;1.90;;
5539;SDS011;2792;52.452;9.752;2023-07-13T09:35:27;6.60;;;2.33;;
5539;SDS011;2792;52.452;9.752;2023-07-13T09:37:58;8.07;;;2.23;;
5539;SDS011;2792;52.452;9.752;2023-07-13T09:40:33;4.83;;;2.13;;
5539;SDS011;2792;52.452;9.752;2023-07-13T09:43:04;4.70;;;1.77;;
5539;SDS011;2792;52.452;9.752;2023-07-13T09:45:37;3.90;;;1.80;;
5539;SDS011;2792;52.452;9.752;2023-07-13T09:48:05;4.33;;;2.27;;
5539;SDS011;2792;52.452;9.752;2023-07-13T09:50:37;4.40;;;1.93;;
5539;SDS011;2792;52.452;9.752;2023-07-13T09:53:04;5.73;;;2.00;;
5539;SDS011;2792;52.452;9.752;2023-07-13T09:55:38;4.60;;;1.97;;
5539;SDS011;2792;52.452;9.752;2023-07-13T09:58:08;3.67;;;1.70;;
5539;SDS011;2792;52.452;9.752;2023-07-13T10:00:38;3.87;;;1.80;;
5539;SDS011;2792;52.452;9.752;2023-07-13T10:03:15;4.60;;;1.90;;
5539;SDS011;2792;52.452;9.752;2023-07-13T10:05:44;5.90;;;2.03;;
5539;SDS011;2792;52.452;9.752;2023-07-13T10:08:18;5.63;;;1.93;;
5539;SDS011;2792;52.452;9.752;2023-07-13T10:10:49;7.40;;;2.00;;
5539;SDS011;2792;52.452;9.752;2023-07-13T10:13:33;5.73;;;1.80;;
5539;SDS011;2792;52.452;9.752;2023-07-13T10:16:03;5.90;;;2.10;;
5539;SDS011;2792;52.452;9.752;2023-07-13T10:18:32;4.20;;;1.87;;
5539;SDS011;2792;52.452;9.752;2023-07-13T10:21:10;4.63;;;2.37;;
5539;SDS011;2792;52.452;9.752;2023-07-13T10:23:39;4.80;;;1.70;;
5539;SDS011;2792;52.452;9.752;2023-07-13T10:26:08;5.23;;;2.00;;
5539;SDS011;2792;52.452;9.752;2023-07-13T10:28:38;4.77;;;1.90;;
5539;SDS011;2792;52.452;9.752;2023-07-13T10:31:08;7.67;;;2.30;;
5539;SDS011;2792;52.452;9.752;2023-07-13T10:33:37;9.03;;;2.80;;
5539;SDS011;2792;52.452;9.752;2023-07-13T10:36:07;3.83;;;1.80;;
5539;SDS011;2792;52.452;9.752;2023-07-13T10:38:39;7.40;;;2.20;;
5539;SDS011;2792;52.452;9.752;2023-07-13T10:41:06;4.40;;;2.10;;
5539;SDS011;2792;52.452;9.752;2023-07-13T10:43:37;2.93;;;1.80;;
5539;SDS011;2792;52.452;9.752;2023-07-13T10:46:09;2.30;;;1.57;;
5539;SDS011;2792;52.452;9.752;2023-07-13T10:48:37;3.93;;;2.30;;
5539;SDS011;2792;52.452;9.752;2023-07-13T10:51:05;5.37;;;2.03;;
5539;SDS011;2792;52.452;9.752;2023-07-13T10:53:33;9.60;;;2.40;;
5539;SDS011;2792;52.452;9.752;2023-07-13T10:56:01;4.07;;;2.20;;
5539;SDS011;2792;52.452;9.752;2023-07-13T10:58:34;3.97;;;1.90;;
5539;SDS011;2792;52.452;9.752;2023-07-13T11:01:03;3.70;;;1.90;;
5539;SDS011;2792;52.452;9.752;2023-07-13T11:03:37;4.40;;;1.90;;
5539;SDS011;2792;52.452;9.752;2023-07-13T11:06:06;3.00;;;1.90;;
5539;SDS011;2792;52.452;9.752;2023-07-13T11:08:36;5.20;;;1.87;;
5539;SDS011;2792;52.452;9.752;2023-07-13T11:11:03;4.10;;;2.33;;
5539;SDS011;2792;52.452;9.752;2023-07-13T11:14:01;7.70;;;2.17;;
5539;SDS011;2792;52.452;9.752;2023-07-13T11:16:35;2.90;;;1.53;;
5539;SDS011;2792;52.452;9.752;2023-07-13T11:22:10;3.97;;;2.00;;
5539;SDS011;2792;52.452;9.752;2023-07-13T11:24:49;4.33;;;2.23;;
5539;SDS011;2792;52.452;9.752;2023-07-13T11:27:23;5.20;;;2.10;;
5539;SDS011;2792;52.452;9.752;2023-07-13T11:30:07;8.63;;;1.57;;
5539;SDS011;2792;52.452;9.752;2023-07-13T11:32:50;5.77;;;2.00;;
5539;SDS011;2792;52.452;9.752;2023-07-13T11:35:21;4.30;;;1.73;;
5539;SDS011;2792;52.452;9.752;2023-07-13T11:37:49;3.20;;;1.73;;
5539;SDS011;2792;52.452;9.752;2023-07-13T11:40:17;4.90;;;1.80;;
5539;SDS011;2792;52.452;9.752;2023-07-13T11:42:44;17.37;;;2.80;;
5539;SDS011;2792;52.452;9.752;2023-07-13T11:45:18;2.07;;;1.87;;
5539;SDS011;2792;52.452;9.752;2023-07-13T11:47:48;2.80;;;1.63;;
5539;SDS011;2792;52.452;9.752;2023-07-13T11:50:19;5.23;;;2.30;;
5539;SDS011;2792;52.452;9.752;2023-07-13T11:52:47;2.33;;;1.33;;
5539;SDS011;2792;52.452;9.752;2023-07-13T11:55:16;6.27;;;2.10;;
5539;SDS011;2792;52.452;9.752;2023-07-13T11:57:44;1.90;;;1.40;;
5539;SDS011;2792;52.452;9.752;2023-07-13T12:00:13;3.90;;;1.87;;
5539;SDS011;2792;52.452;9.752;2023-07-13T12:02:42;4.50;;;2.10;;
5539;SDS011;2792;52.452;9.752;2023-07-13T12:05:11;1.63;;;1.50;;
5539;SDS011;2792;52.452;9.752;2023-07-13T12:07:40;2.70;;;1.43;;
5539;SDS011;2792;52.452;9.752;2023-07-13T12:10:13;5.40;;;1.87;;
5539;SDS011;2792;52.452;9.752;2023-07-13T12:12:48;6.00;;;2.70;;
5539;SDS011;2792;52.452;9.752;2023-07-13T12:15:17;4.70;;;1.77;;
5539;SDS011;2792;52.452;9.752;2023-07-13T12:17:45;4.47;;;1.67;;
5539;SDS011;2792;52.452;9.752;2023-07-13T12:20:17;11.00;;;1.80;;
5539;SDS011;2792;52.452;9.752;2023-07-13T12:22:48;2.57;;;1.47;;
5539;SDS011;2792;52.452;9.752;2023-07-13T12:25:16;7.03;;;2.40;;
5539;SDS011;2792;52.452;9.752;2023-07-13T12:27:45;4.00;;;1.67;;
5539;SDS011;2792;52.452;9.752;2023-07-13T12:30:24;5.53;;;1.80;;
5539;SDS011;2792;52.452;9.752;2023-07-13T12:32:58;4.57;;;1.80;;
5539;SDS011;2792;52.452;9.752;2023-07-13T12:35:26;5.90;;;2.30;;
5539;SDS011;2792;52.452;9.752;2023-07-13T12:37:57;3.30;;;2.20;;
5539;SDS011;2792;52.452;9.752;2023-07-13T12:40:26;4.40;;;2.13;;
5539;SDS011;2792;52.452;9.752;2023-07-13T12:42:53;3.20;;;1.90;;
5539;SDS011;2792;52.452;9.752;2023-07-13T12:45:22;4.40;;;2.00;;
5539;SDS011;2792;52.452;9.752;2023-07-13T12:47:50;2.40;;;1.73;;
5539;SDS011;2792;52.452;9.752;2023-07-13T12:50:20;2.80;;;1.70;;
5539;SDS011;2792;52.452;9.752;2023-07-13T12:52:50;3.60;;;1.90;;
5539;SDS011;2792;52.452;9.752;2023-07-13T12:55:19;5.90;;;2.30;;
5539;SDS011;2792;52.452;9.752;2023-07-13T12:57:49;2.80;;;1.80;;
5539;SDS011;2792;52.452;9.752;2023-07-13T13:00:21;3.67;;;2.03;;
5539;SDS011;2792;52.452;9.752;2023-07-13T13:02:50;5.30;;;2.47;;
5539;SDS011;2792;52.452;9.752;2023-07-13T13:05:17;3.50;;;1.80;;
5539;SDS011;2792;52.452;9.752;2023-07-13T13:07:44;15.57;;;2.43;;
5539;SDS011;2792;52.452;9.752;2023-07-13T13:10:12;7.60;;;2.20;;
5539;SDS011;2792;52.452;9.752;2023-07-13T13:12:41;9.53;;;2.50;;
5539;SDS011;2792;52.452;9.752;2023-07-13T13:15:08;6.97;;;2.13;;
5539;SDS011;2792;52.452;9.752;2023-07-13T13:17:36;9.37;;;2.10;;
5539;SDS011;2792;52.452;9.752;2023-07-13T13:20:04;5.03;;;1.80;;
5539;SDS011;2792;52.452;9.752;2023-07-13T13:22:37;7.40;;;2.20;;
5539;SDS011;2792;52.452;9.752;2023-07-13T13:25:04;2.83;;;2.13;;
5539;SDS011;2792;52.452;9.752;2023-07-13T13:27:31;4.17;;;2.30;;
5539;SDS011;2792;52.452;9.752;2023-07-13T13:29:59;2.90;;;1.97;;
5539;SDS011;2792;52.452;9.752;2023-07-13T13:32:26;4.40;;;2.10;;
5539;SDS011;2792;52.452;9.752;2023-07-13T13:34:52;4.93;;;2.40;;
5539;SDS011;2792;52.452;9.752;2023-07-13T13:37:20;3.70;;;2.50;;
5539;SDS011;2792;52.452;9.752;2023-07-13T13:39:47;5.03;;;2.37;;
5539;SDS011;2792;52.452;9.752;2023-07-13T13:42:14;5.73;;;2.20;;
5539;SDS011;2792;52.452;9.752;2023-07-13T13:44:41;3.47;;;2.50;;
5539;SDS011;2792;52.452;9.752;2023-07-13T13:47:17;2.97;;;2.07;;
5539;SDS011;2792;52.452;9.752;2023-07-13T13:49:48;6.70;;;2.97;;
5539;SDS011;2792;52.452;9.752;2023-07-13T13:52:15;5.93;;;2.27;;
5539;SDS011;2792;52.452;9.752;2023-07-13T13:54:41;2.43;;;2.20;;
5539;SDS011;2792;52.452;9.752;2023-07-13T13:57:08;3.57;;;2.30;;
5539;SDS011;2792;52.452;9.752;2023-07-13T13:59:37;4.33;;;2.30;;
5539;SDS011;2792;52.452;9.752;2023-07-13T14:02:07;5.00;;;2.67;;
5539;SDS011;2792;52.452;9.752;2023-07-13T14:04:46;6.63;;;2.30;;
5539;SDS011;2792;52.452;9.752;2023-07-13T14:07:12;6.93;;;2.80;;
5539;SDS011;2792;52.452;9.752;2023-07-13T14:09:39;4.23;;;2.70;;
5539;SDS011;2792;52.452;9.752;2023-07-13T14:12:08;3.57;;;2.37;;
5539;SDS011;2792;52.452;9.752;2023-07-13T14:14:38;3.73;;;2.30;;
5539;SDS011;2792;52.452;9.752;2023-07-13T14:17:08;11.83;;;2.90;;
5539;SDS011;2792;52.452;9.752;2023-07-13T14:19:43;3.67;;;2.60;;
5539;SDS011;2792;52.452;9.752;2023-07-13T14:22:10;4.03;;;2.83;;
5539;SDS011;2792;52.452;9.752;2023-07-13T14:24:37;3.70;;;2.60;;
5539;SDS011;2792;52.452;9.752;2023-07-13T14:27:03;4.30;;;2.33;;
5539;SDS011;2792;52.452;9.752;2023-07-13T14:29:31;3.20;;;2.60;;
5539;SDS011;2792;52.452;9.752;2023-07-13T14:31:58;8.63;;;3.13;;
5539;SDS011;2792;52.452;9.752;2023-07-13T14:34:25;3.67;;;2.20;;
5539;SDS011;2792;52.452;9.752;2023-07-13T14:36:53;3.10;;;2.13;;
5539;SDS011;2792;52.452;9.752;2023-07-13T14:39:20;2.73;;;2.23;;
5539;SDS011;2792;52.452;9.752;2023-07-13T14:41:49;6.60;;;2.10;;
5539;SDS011;2792;52.452;9.752;2023-07-13T14:44:17;9.90;;;2.60;;
5539;SDS011;2792;52.452;9.752;2023-07-13T14:46:48;3.47;;;2.40;;
5539;SDS011;2792;52.452;9.752;2023-07-13T14:49:19;6.97;;;3.17;;
5539;SDS011;2792;52.452;9.752;2023-07-13T14:51:50;4.30;;;2.60;;
5539;SDS011;2792;52.452;9.752;2023-07-13T14:54:18;4.67;;;3.40;;
5539;SDS011;2792;52.452;9.752;2023-07-13T14:56:44;5.60;;;2.77;;
5539;SDS011;2792;52.452;9.752;2023-07-13T14:59:11;6.27;;;3.10;;
5539;SDS011;2792;52.452;9.752;2023-07-13T15:01:37;6.13;;;3.27;;
5539;SDS011;2792;52.452;9.752;2023-07-13T15:04:05;3.80;;;3.30;;
5539;SDS011;2792;52.452;9.752;2023-07-13T15:06:50;3.60;;;2.87;;
5539;SDS011;2792;52.452;9.752;2023-07-13T15:09:20;7.03;;;3.50;;
5539;SDS011;2792;52.452;9.752;2023-07-13T15:11:47;3.47;;;2.90;;
5539;SDS011;2792;52.452;9.752;2023-07-13T15:14:13;4.90;;;3.70;;
5539;SDS011;2792;52.452;9.752;2023-07-13T15:16:40;7.50;;;3.83;;
5539;SDS011;2792;52.452;9.752;2023-07-13T15:19:08;4.87;;;3.30;;
5539;SDS011;2792;52.452;9.752;2023-07-13T15:21:35;8.20;;;3.60;;
5539;SDS011;2792;52.452;9.752;2023-07-13T15:24:02;5.13;;;3.20;;
5539;SDS011;2792;52.452;9.752;2023-07-13T15:26:34;8.80;;;3.70;;
5539;SDS011;2792;52.452;9.752;2023-07-13T15:29:01;6.77;;;3.43;;